sensor_id;sensor_type;location;lat;lon;timestamp;pressure;altitude;pressure_sealevel;temperature;humidity
73332;BME280;61560;33.718;73.040;2023-03-24T00:01:52;94355.75;;;15.18;75.35
73332;BME280;61560;33.718;73.040;2023-03-24T00:04:19;94359.59;;;15.20;75.47
73332;BME280;61560;33.718;73.040;2023-03-24T00:06:47;94361.56;;;15.20;75.86
73332;BME280;61560;33.718;73.040;2023-03-24T00:09:17;94354.69;;;15.24;75.65
73332;BME280;61560;33.718;73.040;2023-03-24T00:11:45;94353.47;;;15.25;75.60
73332;BME280;61560;33.718;73.040;2023-03-24T00:14:12;94348.72;;;15.26;75.72
73332;BME280;61560;33.718;73.040;2023-03-24T00:16:40;94345.97;;;15.26;74.97
73332;BME280;61560;33.718;73.040;2023-03-24T00:19:11;94340.44;;;15.26;75.34
73332;BME280;61560;33.718;73.040;2023-03-24T00:21:40;94345.50;;;15.27;74.91
73332;BME280;61560;33.718;73.040;2023-03-24T00:24:09;94345.97;;;15.26;75.04
73332;BME280;61560;33.718;73.040;2023-03-24T00:26:38;94339.66;;;15.25;74.15
73332;BME280;61560;33.718;73.040;2023-03-24T00:29:09;94342.44;;;15.25;74.70
73332;BME280;61560;33.718;73.040;2023-03-24T00:31:37;94343.81;;;15.21;74.22
73332;BME280;61560;33.718;73.040;2023-03-24T00:34:06;94346.13;;;15.22;74.60
73332;BME280;61560;33.718;73.040;2023-03-24T00:36:35;94350.84;;;15.22;74.21
73332;BME280;61560;33.718;73.040;2023-03-24T00:39:03;94344.13;;;15.23;73.84
73332;BME280;61560;33.718;73.040;2023-03-24T00:41:32;94355.28;;;15.19;73.54
73332;BME280;61560;33.718;73.040;2023-03-24T00:44:00;94364.47;;;15.16;73.91
73332;BME280;61560;33.718;73.040;2023-03-24T00:46:35;94367.66;;;15.15;73.97
73332;BME280;61560;33.718;73.040;2023-03-24T00:49:07;94360.16;;;15.15;73.71
73332;BME280;61560;33.718;73.040;2023-03-24T00:51:41;94364.78;;;15.18;73.87
73332;BME280;61560;33.718;73.040;2023-03-24T00:54:11;94373.81;;;15.19;74.15
73332;BME280;61560;33.718;73.040;2023-03-24T00:56:39;94370.94;;;15.22;74.14
73332;BME280;61560;33.718;73.040;2023-03-24T00:59:09;94367.41;;;15.22;73.81
73332;BME280;61560;33.718;73.040;2023-03-24T01:01:39;94374.00;;;15.24;73.79
73332;BME280;61560;33.718;73.040;2023-03-24T01:04:08;94366.38;;;15.28;74.18
73332;BME280;61560;33.718;73.040;2023-03-24T01:06:37;94367.78;;;15.33;73.70
73332;BME280;61560;33.718;73.040;2023-03-24T01:09:05;94370.06;;;15.34;73.61
73332;BME280;61560;33.718;73.040;2023-03-24T01:11:36;94365.31;;;15.35;73.81
73332;BME280;61560;33.718;73.040;2023-03-24T01:14:03;94366.53;;;15.34;73.78
73332;BME280;61560;33.718;73.040;2023-03-24T01:16:30;94370.84;;;15.35;74.02
73332;BME280;61560;33.718;73.040;2023-03-24T01:18:58;94372.06;;;15.34;73.79
73332;BME280;61560;33.718;73.040;2023-03-24T01:21:25;94377.88;;;15.36;73.88
73332;BME280;61560;33.718;73.040;2023-03-24T01:23:53;94387.72;;;15.37;73.91
73332;BME280;61560;33.718;73.040;2023-03-24T01:26:20;94398.75;;;15.37;74.01
73332;BME280;61560;33.718;73.040;2023-03-24T01:28:48;94397.50;;;15.38;74.30
73332;BME280;61560;33.718;73.040;2023-03-24T01:31:15;94401.81;;;15.39;73.78
73332;BME280;61560;33.718;73.040;2023-03-24T01:33:42;94409.19;;;15.42;74.00
73332;BME280;61560;33.718;73.040;2023-03-24T01:36:09;94421.88;;;15.39;74.14
73332;BME280;61560;33.718;73.040;2023-03-24T01:38:37;94422.03;;;15.36;74.52
73332;BME280;61560;33.718;73.040;2023-03-24T01:41:05;94426.59;;;15.30;75.17
73332;BME280;61560;33.718;73.040;2023-03-24T01:43:34;94437.38;;;15.37;74.54
73332;BME280;61560;33.718;73.040;2023-03-24T01:48:42;94425.88;;;15.38;74.55
73332;BME280;61560;33.718;73.040;2023-03-24T01:53:53;94444.88;;;15.36;74.96
73332;BME280;61560;33.718;73.040;2023-03-24T01:56:22;94436.47;;;15.40;74.42
73332;BME280;61560;33.718;73.040;2023-03-24T01:58:54;94442.53;;;15.47;74.82
73332;BME280;61560;33.718;73.040;2023-03-24T02:01:37;94448.22;;;15.53;74.35
73332;BME280;61560;33.718;73.040;2023-03-24T02:13:22;94459.59;;;15.55;74.17
73332;BME280;61560;33.718;73.040;2023-03-24T02:16:19;94459.44;;;15.58;74.39
73332;BME280;61560;33.718;73.040;2023-03-24T02:19:20;94451.78;;;15.63;74.42
73332;BME280;61560;33.718;73.040;2023-03-24T02:33:09;94458.81;;;15.94;74.04
73332;BME280;61560;33.718;73.040;2023-03-24T02:36:22;94457.31;;;16.02;73.93
73332;BME280;61560;33.718;73.040;2023-03-24T02:45:19;94461.19;;;16.23;73.37
73332;BME280;61560;33.718;73.040;2023-03-24T02:47:53;94452.78;;;16.35;72.94
73332;BME280;61560;33.718;73.040;2023-03-24T02:50:36;94453.41;;;16.39;72.73
73332;BME280;61560;33.718;73.040;2023-03-24T02:53:29;94447.09;;;16.48;72.79
73332;BME280;61560;33.718;73.040;2023-03-24T02:56:42;94456.34;;;16.63;71.86
73332;BME280;61560;33.718;73.040;2023-03-24T02:59:39;94467.44;;;16.72;71.53
73332;BME280;61560;33.718;73.040;2023-03-24T03:02:29;94469.88;;;16.79;71.66
73332;BME280;61560;33.718;73.040;2023-03-24T03:05:09;94472.66;;;16.88;70.80
73332;BME280;61560;33.718;73.040;2023-03-24T03:07:42;94477.13;;;16.95;70.64
73332;BME280;61560;33.718;73.040;2023-03-24T03:10:37;94490.31;;;17.00;70.72
73332;BME280;61560;33.718;73.040;2023-03-24T03:15:50;94521.06;;;17.02;71.06
73332;BME280;61560;33.718;73.040;2023-03-24T03:18:30;94548.28;;;17.03;70.95
73332;BME280;61560;33.718;73.040;2023-03-24T03:21:12;94559.06;;;17.01;70.69
73332;BME280;61560;33.718;73.040;2023-03-24T03:23:48;94563.34;;;17.02;69.25
73332;BME280;61560;33.718;73.040;2023-03-24T03:26:19;94557.50;;;17.00;69.46
73332;BME280;61560;33.718;73.040;2023-03-24T03:28:55;94560.56;;;17.02;69.15
73332;BME280;61560;33.718;73.040;2023-03-24T03:31:28;94563.94;;;17.06;68.91
73332;BME280;61560;33.718;73.040;2023-03-24T03:34:36;94577.81;;;17.15;68.51
73332;BME280;61560;33.718;73.040;2023-03-24T03:40:15;94580.41;;;17.37;67.84
73332;BME280;61560;33.718;73.040;2023-03-24T03:42:51;94586.09;;;17.43;68.26
73332;BME280;61560;33.718;73.040;2023-03-24T03:45:18;94593.66;;;17.51;68.35
73332;BME280;61560;33.718;73.040;2023-03-24T03:47:46;94601.66;;;17.49;68.63
73332;BME280;61560;33.718;73.040;2023-03-24T03:50:14;94602.75;;;17.52;68.34
73332;BME280;61560;33.718;73.040;2023-03-24T03:52:41;94602.88;;;17.57;68.23
73332;BME280;61560;33.718;73.040;2023-03-24T03:55:10;94625.97;;;17.63;67.92
73332;BME280;61560;33.718;73.040;2023-03-24T03:57:39;94650.44;;;17.65;67.83
73332;BME280;61560;33.718;73.040;2023-03-24T04:00:16;94632.91;;;17.59;67.52
73332;BME280;61560;33.718;73.040;2023-03-24T04:09:36;94653.06;;;17.77;66.37
73332;BME280;61560;33.718;73.040;2023-03-24T04:12:10;94652.56;;;17.88;66.24
73332;BME280;61560;33.718;73.040;2023-03-24T04:21:16;94640.91;;;18.53;63.79
73332;BME280;61560;33.718;73.040;2023-03-24T04:24:13;94649.66;;;18.60;63.39
73332;BME280;61560;33.718;73.040;2023-03-24T04:26:47;94648.78;;;18.78;62.44
73332;BME280;61560;33.718;73.040;2023-03-24T04:29:51;94672.34;;;18.92;62.05
73332;BME280;61560;33.718;73.040;2023-03-24T04:32:34;94664.72;;;19.34;60.73
73332;BME280;61560;33.718;73.040;2023-03-24T04:35:10;94652.81;;;19.57;59.31
73332;BME280;61560;33.718;73.040;2023-03-24T04:38:11;94648.38;;;19.74;58.38
73332;BME280;61560;33.718;73.040;2023-03-24T04:40:45;94658.56;;;19.92;57.52
73332;BME280;61560;33.718;73.040;2023-03-24T04:43:18;94659.34;;;19.92;57.45
73332;BME280;61560;33.718;73.040;2023-03-24T04:45:48;94654.16;;;20.00;57.57
73332;BME280;61560;33.718;73.040;2023-03-24T04:48:28;94655.38;;;20.22;57.11
73332;BME280;61560;33.718;73.040;2023-03-24T04:51:16;94641.38;;;20.31;55.93
73332;BME280;61560;33.718;73.040;2023-03-24T04:53:56;94645.66;;;20.47;55.17
73332;BME280;61560;33.718;73.040;2023-03-24T04:56:29;94645.66;;;20.62;54.08
73332;BME280;61560;33.718;73.040;2023-03-24T04:59:15;94644.44;;;20.63;54.37
73332;BME280;61560;33.718;73.040;2023-03-24T05:01:44;94657.94;;;20.70;53.85
73332;BME280;61560;33.718;73.040;2023-03-24T05:04:40;94649.78;;;20.66;53.14
73332;BME280;61560;33.718;73.040;2023-03-24T05:07:18;94647.00;;;20.81;53.10
73332;BME280;61560;33.718;73.040;2023-03-24T05:09:50;94647.97;;;21.12;52.28
73332;BME280;61560;33.718;73.040;2023-03-24T05:12:17;94642.44;;;21.33;51.91
73332;BME280;61560;33.718;73.040;2023-03-24T05:15:03;94635.25;;;21.66;51.03
73332;BME280;61560;33.718;73.040;2023-03-24T05:17:31;94631.16;;;21.82;50.79
73332;BME280;61560;33.718;73.040;2023-03-24T05:19:58;94633.75;;;21.65;50.51
73332;BME280;61560;33.718;73.040;2023-03-24T05:22:25;94635.22;;;21.41;51.09
73332;BME280;61560;33.718;73.040;2023-03-24T05:24:52;94629.13;;;21.22;51.41
73332;BME280;61560;33.718;73.040;2023-03-24T05:27:19;94629.09;;;21.02;52.25
73332;BME280;61560;33.718;73.040;2023-03-24T05:29:46;94626.72;;;20.80;52.56
73332;BME280;61560;33.718;73.040;2023-03-24T05:32:20;94626.81;;;20.71;53.20
73332;BME280;61560;33.718;73.040;2023-03-24T05:34:47;94631.94;;;20.73;53.24
73332;BME280;61560;33.718;73.040;2023-03-24T05:37:23;94629.81;;;20.68;53.28
73332;BME280;61560;33.718;73.040;2023-03-24T05:39:51;94635.78;;;20.61;53.63
73332;BME280;61560;33.718;73.040;2023-03-24T05:42:41;94632.53;;;20.62;53.87
73332;BME280;61560;33.718;73.040;2023-03-24T05:45:10;94641.88;;;20.79;53.71
73332;BME280;61560;33.718;73.040;2023-03-24T05:47:38;94638.25;;;20.73;54.36
73332;BME280;61560;33.718;73.040;2023-03-24T05:50:06;94641.03;;;20.59;54.79
73332;BME280;61560;33.718;73.040;2023-03-24T05:52:34;94642.09;;;20.61;55.38
73332;BME280;61560;33.718;73.040;2023-03-24T05:55:22;94636.94;;;20.69;55.14
73332;BME280;61560;33.718;73.040;2023-03-24T05:57:56;94643.63;;;20.77;54.92
73332;BME280;61560;33.718;73.040;2023-03-24T06:00:49;94632.53;;;20.97;54.52
73332;BME280;61560;33.718;73.040;2023-03-24T06:03:29;94629.28;;;21.33;53.99
73332;BME280;61560;33.718;73.040;2023-03-24T06:06:09;94623.84;;;21.64;52.47
73332;BME280;61560;33.718;73.040;2023-03-24T06:08:42;94617.28;;;21.87;52.07
73332;BME280;61560;33.718;73.040;2023-03-24T06:11:11;94623.19;;;21.95;52.22
73332;BME280;61560;33.718;73.040;2023-03-24T06:13:49;94615.69;;;22.07;51.91
73332;BME280;61560;33.718;73.040;2023-03-24T06:16:16;94617.84;;;22.17;51.80
73332;BME280;61560;33.718;73.040;2023-03-24T06:18:54;94604.13;;;22.14;51.39
73332;BME280;61560;33.718;73.040;2023-03-24T06:22:00;94607.72;;;22.20;51.61
73332;BME280;61560;33.718;73.040;2023-03-24T06:24:35;94602.53;;;22.07;51.61
73332;BME280;61560;33.718;73.040;2023-03-24T06:27:07;94594.69;;;22.11;52.23
73332;BME280;61560;33.718;73.040;2023-03-24T06:29:35;94595.19;;;22.10;52.49
73332;BME280;61560;33.718;73.040;2023-03-24T06:32:02;94598.09;;;22.21;52.45
73332;BME280;61560;33.718;73.040;2023-03-24T06:34:36;94598.81;;;22.41;51.52
73332;BME280;61560;33.718;73.040;2023-03-24T06:37:23;94589.00;;;22.51;50.24
73332;BME280;61560;33.718;73.040;2023-03-24T06:39:54;94585.81;;;22.38;50.33
73332;BME280;61560;33.718;73.040;2023-03-24T06:42:30;94586.00;;;22.29;50.75
73332;BME280;61560;33.718;73.040;2023-03-24T06:45:01;94586.44;;;22.22;50.79
73332;BME280;61560;33.718;73.040;2023-03-24T06:47:28;94578.69;;;22.06;50.49
73332;BME280;61560;33.718;73.040;2023-03-24T06:49:55;94581.56;;;22.17;50.98
73332;BME280;61560;33.718;73.040;2023-03-24T06:52:26;94585.91;;;22.18;51.02
73332;BME280;61560;33.718;73.040;2023-03-24T06:54:54;94578.97;;;22.08;51.51
73332;BME280;61560;33.718;73.040;2023-03-24T06:57:25;94567.03;;;22.08;52.28
73332;BME280;61560;33.718;73.040;2023-03-24T07:00:11;94572.03;;;21.98;52.23
73332;BME280;61560;33.718;73.040;2023-03-24T07:02:52;94576.34;;;21.99;52.13
73332;BME280;61560;33.718;73.040;2023-03-24T07:05:19;94572.78;;;21.98;52.19
73332;BME280;61560;33.718;73.040;2023-03-24T07:07:47;94567.41;;;21.95;52.15
73332;BME280;61560;33.718;73.040;2023-03-24T07:10:47;94571.47;;;21.94;52.60
73332;BME280;61560;33.718;73.040;2023-03-24T07:13:15;94566.19;;;21.96;53.28
73332;BME280;61560;33.718;73.040;2023-03-24T07:15:42;94557.75;;;21.90;52.18
73332;BME280;61560;33.718;73.040;2023-03-24T07:18:10;94557.97;;;21.87;52.55
73332;BME280;61560;33.718;73.040;2023-03-24T07:20:44;94556.25;;;21.69;52.83
73332;BME280;61560;33.718;73.040;2023-03-24T07:23:13;94560.91;;;21.58;52.92
73332;BME280;61560;33.718;73.040;2023-03-24T07:26:10;94558.50;;;21.45;53.29
73332;BME280;61560;33.718;73.040;2023-03-24T07:28:46;94552.25;;;21.30;53.77
73332;BME280;61560;33.718;73.040;2023-03-24T07:31:22;94553.63;;;21.40;53.96
73332;BME280;61560;33.718;73.040;2023-03-24T07:33:57;94551.91;;;21.43;53.87
73332;BME280;61560;33.718;73.040;2023-03-24T07:36:25;94552.16;;;21.45;53.73
73332;BME280;61560;33.718;73.040;2023-03-24T07:38:53;94553.81;;;21.37;53.16
73332;BME280;61560;33.718;73.040;2023-03-24T07:41:26;94543.19;;;21.35;53.81
73332;BME280;61560;33.718;73.040;2023-03-24T07:43:59;94540.59;;;21.32;53.66
73332;BME280;61560;33.718;73.040;2023-03-24T07:46:33;94535.31;;;21.34;53.47
73332;BME280;61560;33.718;73.040;2023-03-24T07:49:02;94528.09;;;21.22;53.31
73332;BME280;61560;33.718;73.040;2023-03-24T07:51:29;94529.59;;;21.23;53.57
73332;BME280;61560;33.718;73.040;2023-03-24T07:54:00;94526.13;;;21.28;53.12
73332;BME280;61560;33.718;73.040;2023-03-24T07:56:32;94508.91;;;21.29;53.19
73332;BME280;61560;33.718;73.040;2023-03-24T07:59:01;94514.25;;;21.33;53.12
73332;BME280;61560;33.718;73.040;2023-03-24T08:01:32;94518.31;;;21.32;53.18
73332;BME280;61560;33.718;73.040;2023-03-24T08:04:03;94516.44;;;21.23;53.23
73332;BME280;61560;33.718;73.040;2023-03-24T08:06:51;94510.00;;;21.11;52.79
73332;BME280;61560;33.718;73.040;2023-03-24T08:09:19;94496.97;;;21.03;52.35
73332;BME280;61560;33.718;73.040;2023-03-24T08:11:50;94493.88;;;21.01;52.06
73332;BME280;61560;33.718;73.040;2023-03-24T08:14:16;94488.63;;;21.03;52.41
73332;BME280;61560;33.718;73.040;2023-03-24T08:16:44;94489.00;;;20.96;52.92
73332;BME280;61560;33.718;73.040;2023-03-24T08:19:11;94485.75;;;20.97;53.07
73332;BME280;61560;33.718;73.040;2023-03-24T08:21:39;94478.13;;;20.98;52.49
73332;BME280;61560;33.718;73.040;2023-03-24T09:57:23;94536.19;;;16.03;85.19
73332;BME280;61560;33.718;73.040;2023-03-24T09:59:52;94544.47;;;16.03;85.15
73332;BME280;61560;33.718;73.040;2023-03-24T10:02:20;94550.31;;;16.05;85.31
73332;BME280;61560;33.718;73.040;2023-03-24T10:04:48;94558.16;;;16.07;85.43
73332;BME280;61560;33.718;73.040;2023-03-24T10:09:55;94512.72;;;16.08;86.86
73332;BME280;61560;33.718;73.040;2023-03-24T10:12:35;94533.47;;;16.12;87.68
73332;BME280;61560;33.718;73.040;2023-03-24T10:15:08;94543.28;;;16.13;87.61
73332;BME280;61560;33.718;73.040;2023-03-24T10:17:54;94552.75;;;16.03;87.34
73332;BME280;61560;33.718;73.040;2023-03-24T10:20:49;94531.38;;;15.95;86.93
73332;BME280;61560;33.718;73.040;2023-03-24T10:26:14;94580.75;;;15.84;86.74
73332;BME280;61560;33.718;73.040;2023-03-24T10:28:59;94581.84;;;15.86;85.80
73332;BME280;61560;33.718;73.040;2023-03-24T10:31:33;94585.31;;;15.78;85.02
73332;BME280;61560;33.718;73.040;2023-03-24T10:34:02;94581.22;;;15.82;85.56
73332;BME280;61560;33.718;73.040;2023-03-24T10:36:30;94589.94;;;15.81;85.91
73332;BME280;61560;33.718;73.040;2023-03-24T10:38:58;94575.38;;;15.80;85.68
73332;BME280;61560;33.718;73.040;2023-03-24T10:41:27;94570.16;;;15.82;86.34
73332;BME280;61560;33.718;73.040;2023-03-24T10:43:56;94560.97;;;15.85;86.79
73332;BME280;61560;33.718;73.040;2023-03-24T10:46:27;94539.66;;;15.95;86.54
73332;BME280;61560;33.718;73.040;2023-03-24T10:49:13;94534.75;;;15.90;86.53
73332;BME280;61560;33.718;73.040;2023-03-24T10:51:49;94533.41;;;15.94;86.71
73332;BME280;61560;33.718;73.040;2023-03-24T10:54:27;94524.66;;;15.96;87.13
73332;BME280;61560;33.718;73.040;2023-03-24T10:59:36;94538.34;;;16.08;86.17
73332;BME280;61560;33.718;73.040;2023-03-24T11:02:30;94544.66;;;16.09;86.16
73332;BME280;61560;33.718;73.040;2023-03-24T11:05:19;94538.50;;;16.05;86.72
73332;BME280;61560;33.718;73.040;2023-03-24T11:08:26;94546.66;;;16.08;86.31
73332;BME280;61560;33.718;73.040;2023-03-24T12:27:20;94557.50;;;16.42;82.77
73332;BME280;61560;33.718;73.040;2023-03-24T12:39:10;94548.06;;;16.62;80.40
73332;BME280;61560;33.718;73.040;2023-03-24T12:41:59;94548.53;;;16.60;80.25
73332;BME280;61560;33.718;73.040;2023-03-24T12:47:29;94541.31;;;16.63;78.98
73332;BME280;61560;33.718;73.040;2023-03-24T12:52:50;94549.28;;;16.61;78.77
73332;BME280;61560;33.718;73.040;2023-03-24T12:55:34;94535.94;;;16.59;78.42
73332;BME280;61560;33.718;73.040;2023-03-24T13:00:38;94537.78;;;16.62;77.67
73332;BME280;61560;33.718;73.040;2023-03-24T13:03:20;94543.13;;;16.57;78.18
73332;BME280;61560;33.718;73.040;2023-03-24T13:05:52;94552.34;;;16.54;78.45
73332;BME280;61560;33.718;73.040;2023-03-24T13:08:24;94555.13;;;16.54;78.45
73332;BME280;61560;33.718;73.040;2023-03-24T13:11:04;94550.50;;;16.51;78.65
73332;BME280;61560;33.718;73.040;2023-03-24T13:13:37;94549.28;;;16.52;78.25
73332;BME280;61560;33.718;73.040;2023-03-24T13:16:12;94546.97;;;16.50;79.05
73332;BME280;61560;33.718;73.040;2023-03-24T13:18:53;94536.66;;;16.51;78.85
73332;BME280;61560;33.718;73.040;2023-03-24T13:21:23;94535.47;;;16.52;78.79
73332;BME280;61560;33.718;73.040;2023-03-24T13:24:01;94524.41;;;16.52;78.57
73332;BME280;61560;33.718;73.040;2023-03-24T13:26:56;94532.03;;;16.48;78.78
73332;BME280;61560;33.718;73.040;2023-03-24T13:34:55;94530.19;;;16.45;78.28
73332;BME280;61560;33.718;73.040;2023-03-24T13:37:51;94548.31;;;16.46;77.96
73332;BME280;61560;33.718;73.040;2023-03-24T13:40:23;94537.25;;;16.46;78.47
73332;BME280;61560;33.718;73.040;2023-03-24T13:42:57;94548.63;;;16.48;78.74
73332;BME280;61560;33.718;73.040;2023-03-24T13:45:41;94560.91;;;16.47;78.61
73332;BME280;61560;33.718;73.040;2023-03-24T13:50:46;94542.16;;;16.42;79.21
73332;BME280;61560;33.718;73.040;2023-03-24T13:53:17;94534.63;;;16.42;79.13
73332;BME280;61560;33.718;73.040;2023-03-24T13:55:50;94532.94;;;16.45;79.16
73332;BME280;61560;33.718;73.040;2023-03-24T14:07:45;94568.97;;;16.23;77.27
73332;BME280;61560;33.718;73.040;2023-03-24T14:21:07;94552.44;;;16.41;73.03
73332;BME280;61560;33.718;73.040;2023-03-24T14:26:32;94564.13;;;16.45;72.12
73332;BME280;61560;33.718;73.040;2023-03-24T14:29:00;94580.72;;;16.45;72.95
73332;BME280;61560;33.718;73.040;2023-03-24T14:31:32;94579.16;;;16.44;73.46
73332;BME280;61560;33.718;73.040;2023-03-24T14:34:21;94580.88;;;16.42;74.21
73332;BME280;61560;33.718;73.040;2023-03-24T14:37:03;94601.56;;;16.37;74.65
73332;BME280;61560;33.718;73.040;2023-03-24T14:39:43;94614.28;;;16.34;75.02
73332;BME280;61560;33.718;73.040;2023-03-24T14:48:20;94611.38;;;16.29;74.12
73332;BME280;61560;33.718;73.040;2023-03-24T14:50:51;94628.41;;;16.27;74.63
73332;BME280;61560;33.718;73.040;2023-03-24T14:53:19;94621.50;;;16.32;73.81
73332;BME280;61560;33.718;73.040;2023-03-24T14:55:49;94605.97;;;16.25;74.04
73332;BME280;61560;33.718;73.040;2023-03-24T14:58:36;94601.81;;;16.21;73.89
73332;BME280;61560;33.718;73.040;2023-03-24T15:01:08;94610.09;;;16.21;73.79
73332;BME280;61560;33.718;73.040;2023-03-24T15:03:58;94608.38;;;16.14;74.00
73332;BME280;61560;33.718;73.040;2023-03-24T15:06:26;94615.00;;;16.17;73.85
73332;BME280;61560;33.718;73.040;2023-03-24T15:08:56;94630.34;;;16.18;74.13
73332;BME280;61560;33.718;73.040;2023-03-24T15:11:38;94616.84;;;16.20;74.21
73332;BME280;61560;33.718;73.040;2023-03-24T15:16:56;94633.88;;;16.18;74.43
73332;BME280;61560;33.718;73.040;2023-03-24T15:19:26;94625.13;;;16.20;74.56
73332;BME280;61560;33.718;73.040;2023-03-24T15:24:29;94671.22;;;16.23;74.78
73332;BME280;61560;33.718;73.040;2023-03-24T15:29:37;94651.88;;;16.23;74.72
73332;BME280;61560;33.718;73.040;2023-03-24T15:32:05;94648.78;;;16.21;73.23
73332;BME280;61560;33.718;73.040;2023-03-24T15:37:01;94640.19;;;16.19;73.10
73332;BME280;61560;33.718;73.040;2023-03-24T15:39:38;94655.84;;;16.22;72.85
73332;BME280;61560;33.718;73.040;2023-03-24T15:42:12;94651.09;;;16.22;72.16
73332;BME280;61560;33.718;73.040;2023-03-24T15:44:41;94666.78;;;16.25;71.82
73332;BME280;61560;33.718;73.040;2023-03-24T15:49:56;94645.41;;;16.26;71.72
73332;BME280;61560;33.718;73.040;2023-03-24T15:55:38;94649.88;;;16.23;71.32
73332;BME280;61560;33.718;73.040;2023-03-24T15:57:40;94648.31;;;16.22;71.06
73332;BME280;61560;33.718;73.040;2023-03-24T16:00:16;94657.09;;;16.21;71.07
73332;BME280;61560;33.718;73.040;2023-03-24T16:02:49;94667.94;;;16.15;70.85
73332;BME280;61560;33.718;73.040;2023-03-24T16:05:22;94655.91;;;16.09;71.33
73332;BME280;61560;33.718;73.040;2023-03-24T16:10:28;94647.00;;;16.05;71.71
73332;BME280;61560;33.718;73.040;2023-03-24T16:15:32;94643.75;;;15.98;70.79
73332;BME280;61560;33.718;73.040;2023-03-24T16:17:59;94651.47;;;16.03;71.16
73332;BME280;61560;33.718;73.040;2023-03-24T16:20:26;94646.38;;;16.01;70.44
73332;BME280;61560;33.718;73.040;2023-03-24T16:22:53;94643.59;;;16.01;70.63
73332;BME280;61560;33.718;73.040;2023-03-24T16:25:25;94634.25;;;15.99;70.35
73332;BME280;61560;33.718;73.040;2023-03-24T16:27:52;94642.19;;;15.97;69.57
73332;BME280;61560;33.718;73.040;2023-03-24T16:30:23;94648.81;;;15.99;67.40
73332;BME280;61560;33.718;73.040;2023-03-24T16:32:51;94656.19;;;16.02;66.17
73332;BME280;61560;33.718;73.040;2023-03-24T16:35:18;94662.06;;;16.04;64.68
73332;BME280;61560;33.718;73.040;2023-03-24T16:37:45;94657.63;;;16.07;64.69
73332;BME280;61560;33.718;73.040;2023-03-24T16:42:52;94673.59;;;16.12;63.97
73332;BME280;61560;33.718;73.040;2023-03-24T16:45:19;94680.78;;;16.09;63.67
73332;BME280;61560;33.718;73.040;2023-03-24T16:47:47;94677.59;;;16.11;63.09
73332;BME280;61560;33.718;73.040;2023-03-24T16:52:59;94690.03;;;16.15;62.51
73332;BME280;61560;33.718;73.040;2023-03-24T16:55:26;94690.94;;;16.12;62.97
73332;BME280;61560;33.718;73.040;2023-03-24T16:57:55;94701.88;;;16.16;62.71
73332;BME280;61560;33.718;73.040;2023-03-24T17:00:22;94694.81;;;16.15;62.85
73332;BME280;61560;33.718;73.040;2023-03-24T17:02:49;94699.56;;;16.14;62.81
73332;BME280;61560;33.718;73.040;2023-03-24T17:05:23;94716.59;;;16.13;63.22
73332;BME280;61560;33.718;73.040;2023-03-24T17:07:55;94706.75;;;16.12;63.34
73332;BME280;61560;33.718;73.040;2023-03-24T17:10:26;94715.97;;;16.09;63.38
73332;BME280;61560;33.718;73.040;2023-03-24T17:12:55;94705.78;;;16.06;63.24
73332;BME280;61560;33.718;73.040;2023-03-24T17:15:25;94705.63;;;16.00;63.53
73332;BME280;61560;33.718;73.040;2023-03-24T17:17:54;94705.84;;;15.93;63.42
73332;BME280;61560;33.718;73.040;2023-03-24T17:20:22;94705.06;;;15.93;63.49
73332;BME280;61560;33.718;73.040;2023-03-24T17:22:50;94714.13;;;15.93;64.08
73332;BME280;61560;33.718;73.040;2023-03-24T17:25:20;94707.41;;;15.94;64.74
73332;BME280;61560;33.718;73.040;2023-03-24T17:27:49;94705.06;;;15.93;65.73
73332;BME280;61560;33.718;73.040;2023-03-24T17:30:19;94715.81;;;15.91;66.21
73332;BME280;61560;33.718;73.040;2023-03-24T17:32:47;94716.59;;;15.91;66.73
73332;BME280;61560;33.718;73.040;2023-03-24T17:35:18;94716.25;;;15.89;67.83
73332;BME280;61560;33.718;73.040;2023-03-24T17:37:47;94721.16;;;15.85;69.16
73332;BME280;61560;33.718;73.040;2023-03-24T17:40:16;94722.06;;;15.82;69.42
73332;BME280;61560;33.718;73.040;2023-03-24T17:42:45;94720.94;;;15.80;69.53
73332;BME280;61560;33.718;73.040;2023-03-24T17:45:14;94732.13;;;15.76;69.16
73332;BME280;61560;33.718;73.040;2023-03-24T17:47:43;94731.13;;;15.70;69.15
73332;BME280;61560;33.718;73.040;2023-03-24T17:50:10;94735.91;;;15.70;69.45
73332;BME280;61560;33.718;73.040;2023-03-24T17:52:42;94720.22;;;15.67;69.45
73332;BME280;61560;33.718;73.040;2023-03-24T17:55:12;94720.22;;;15.67;69.02
73332;BME280;61560;33.718;73.040;2023-03-24T17:57:39;94717.91;;;15.65;69.25
73332;BME280;61560;33.718;73.040;2023-03-24T18:00:08;94709.03;;;15.70;69.41
73332;BME280;61560;33.718;73.040;2023-03-24T18:02:41;94707.66;;;15.66;68.88
73332;BME280;61560;33.718;73.040;2023-03-24T18:05:10;94711.75;;;15.61;68.59
73332;BME280;61560;33.718;73.040;2023-03-24T18:07:38;94704.66;;;15.60;68.17
73332;BME280;61560;33.718;73.040;2023-03-24T18:10:07;94697.94;;;15.61;68.45
73332;BME280;61560;33.718;73.040;2023-03-24T18:12:34;94693.84;;;15.66;68.01
73332;BME280;61560;33.718;73.040;2023-03-24T18:15:04;94698.47;;;15.69;68.18
73332;BME280;61560;33.718;73.040;2023-03-24T18:17:32;94699.88;;;15.73;67.85
73332;BME280;61560;33.718;73.040;2023-03-24T18:19:59;94702.50;;;15.77;67.66
73332;BME280;61560;33.718;73.040;2023-03-24T18:22:35;94687.50;;;15.78;67.70
73332;BME280;61560;33.718;73.040;2023-03-24T18:25:03;94694.88;;;15.81;67.74
73332;BME280;61560;33.718;73.040;2023-03-24T18:27:30;94695.19;;;15.83;68.10
73332;BME280;61560;33.718;73.040;2023-03-24T18:29:57;94692.09;;;15.81;68.27
73332;BME280;61560;33.718;73.040;2023-03-24T18:32:24;94690.25;;;15.78;68.27
73332;BME280;61560;33.718;73.040;2023-03-24T18:34:52;94685.84;;;15.80;68.30